createdAt,value
2023-01-27T00:01:09.000Z,7.80
2023-01-27T00:03:35.896Z,7.85
2023-01-27T00:06:06.559Z,7.22
2023-01-27T00:08:33.440Z,7.72
2023-01-27T00:11:19.331Z,6.68
2023-01-27T00:13:46.076Z,7.40
2023-01-27T00:16:13.273Z,6.65
2023-01-27T00:18:40.103Z,7.38
2023-01-27T00:21:25.720Z,6.63
2023-01-27T00:24:11.192Z,6.70
2023-01-27T00:26:38.035Z,6.65
2023-01-27T00:29:04.963Z,6.38
2023-01-27T00:31:50.755Z,6.00
2023-01-27T00:34:18.009Z,6.05
2023-01-27T00:36:45.066Z,6.13
2023-01-27T00:39:12.715Z,6.32
2023-01-27T00:41:40.250Z,6.15
2023-01-27T00:44:12.723Z,6.28
2023-01-27T00:46:41.330Z,6.05
2023-01-27T00:49:09.401Z,5.83
2023-01-27T00:51:36.943Z,5.70
2023-01-27T00:54:04.221Z,5.85
2023-01-27T00:56:31.308Z,5.85
2023-01-27T00:58:58.211Z,5.40
2023-01-27T01:01:25.182Z,5.35
2023-01-27T01:03:55.228Z,5.25
2023-01-27T01:06:22.130Z,5.07
2023-01-27T01:08:49.051Z,5.13
2023-01-27T01:11:17.537Z,5.55
2023-01-27T01:13:45.820Z,4.80
2023-01-27T01:16:12.566Z,5.40
2023-01-27T01:18:39.435Z,4.80
2023-01-27T01:21:07.440Z,4.40
2023-01-27T01:23:38.120Z,4.57
2023-01-27T01:26:05.384Z,4.70
2023-01-27T01:28:32.472Z,4.85
2023-01-27T01:31:09.543Z,4.50
2023-01-27T01:33:37.241Z,4.45
2023-01-27T01:36:11.847Z,4.15
2023-01-27T01:38:38.658Z,4.55
2023-01-27T01:41:14.260Z,4.13
2023-01-27T01:43:41.218Z,3.97
2023-01-27T01:46:11.314Z,4.30
2023-01-27T01:48:50.564Z,3.97
2023-01-27T01:51:32.654Z,3.50
2023-01-27T01:54:25.378Z,3.90
2023-01-27T01:57:30.235Z,3.67
2023-01-27T02:00:03.079Z,3.38
2023-01-27T02:02:41.710Z,3.53
2023-01-27T02:05:16.615Z,3.30
2023-01-27T02:07:59.333Z,3.25
2023-01-27T02:10:26.296Z,3.72
2023-01-27T02:12:53.338Z,3.25
2023-01-27T02:15:21.651Z,3.15
2023-01-27T02:17:49.306Z,3.20
2023-01-27T02:20:27.781Z,3.53
2023-01-27T02:22:57.332Z,3.50
2023-01-27T02:25:28.132Z,3.00
2023-01-27T02:27:55.040Z,3.28
2023-01-27T02:30:22.692Z,3.50
2023-01-27T02:32:49.518Z,2.97
2023-01-27T02:35:22.828Z,2.97
2023-01-27T02:37:51.713Z,2.95
2023-01-27T02:40:19.259Z,3.08
2023-01-27T02:42:46.140Z,3.00
2023-01-27T02:45:13.184Z,2.95
2023-01-27T02:47:40.279Z,3.50
2023-01-27T02:50:07.678Z,2.75
2023-01-27T02:52:34.874Z,2.95
2023-01-27T02:55:01.604Z,3.17
2023-01-27T02:57:30.047Z,2.80
2023-01-27T03:00:22.832Z,2.70
2023-01-27T03:02:52.641Z,2.65
2023-01-27T03:05:19.545Z,2.33
2023-01-27T03:07:46.506Z,2.60
2023-01-27T03:10:13.685Z,2.53
2023-01-27T03:12:40.670Z,2.40
2023-01-27T03:15:27.106Z,2.55
2023-01-27T03:18:32.498Z,2.25
2023-01-27T03:21:04.612Z,2.42
2023-01-27T03:23:34.900Z,2.40
2023-01-27T03:26:05.917Z,2.33
2023-01-27T03:28:33.533Z,2.38
2023-01-27T03:31:09.566Z,2.05
2023-01-27T03:33:47.676Z,2.58
2023-01-27T03:36:55.848Z,2.58
2023-01-27T03:39:42.106Z,2.30
2023-01-27T03:42:27.357Z,2.58
2023-01-27T03:45:14.494Z,2.25
2023-01-27T03:47:41.753Z,2.30
2023-01-27T03:50:13.861Z,2.28
2023-01-27T03:52:40.669Z,1.90
2023-01-27T03:55:09.512Z,2.00
2023-01-27T03:57:38.242Z,2.30
2023-01-27T04:00:05.413Z,1.97
2023-01-27T04:02:58.372Z,2.40
2023-01-27T04:05:44.020Z,1.88
2023-01-27T04:08:10.798Z,2.15
2023-01-27T04:10:37.519Z,1.95
2023-01-27T04:13:04.206Z,1.52
2023-01-27T04:15:31.100Z,2.08
2023-01-27T04:17:57.777Z,1.85
2023-01-27T04:20:24.645Z,2.10
2023-01-27T04:22:51.644Z,1.95
2023-01-27T04:25:18.910Z,1.77
2023-01-27T04:27:45.919Z,2.03
2023-01-27T04:30:13.193Z,2.03
2023-01-27T04:32:40.077Z,2.08
2023-01-27T04:35:07.333Z,1.83
2023-01-27T04:37:34.030Z,1.90
2023-01-27T04:40:01.040Z,1.80
2023-01-27T04:42:28.025Z,2.10
2023-01-27T04:44:54.835Z,2.17
2023-01-27T04:47:21.812Z,2.03
2023-01-27T04:49:48.738Z,2.10
2023-01-27T04:52:15.432Z,3.00
2023-01-27T04:54:42.173Z,2.40
2023-01-27T04:57:10.474Z,2.45
2023-01-27T04:59:37.309Z,2.42
2023-01-27T05:02:04.793Z,2.33
2023-01-27T05:04:32.499Z,2.90
2023-01-27T05:06:59.358Z,2.80
2023-01-27T05:09:26.205Z,2.55
2023-01-27T05:11:53.075Z,3.00
2023-01-27T05:14:20.188Z,2.65
2023-01-27T05:16:47.096Z,2.95
2023-01-27T05:19:13.960Z,3.15
2023-01-27T05:21:40.833Z,3.10
2023-01-27T05:24:07.786Z,3.03
2023-01-27T05:26:34.753Z,3.40
2023-01-27T05:29:01.579Z,3.80
2023-01-27T05:31:34.173Z,3.20
2023-01-27T05:34:02.123Z,3.60
2023-01-27T05:36:29.619Z,3.30
2023-01-27T05:38:57.824Z,3.55
2023-01-27T05:41:25.546Z,3.80
2023-01-27T05:43:54.767Z,3.63
2023-01-27T05:46:24.280Z,3.58
2023-01-27T05:48:56.409Z,3.78
2023-01-27T05:51:25.196Z,4.10
2023-01-27T05:53:53.928Z,3.67
2023-01-27T05:56:21.394Z,4.32
2023-01-27T05:58:48.352Z,3.78
2023-01-27T06:01:23.522Z,3.72
2023-01-27T06:03:50.632Z,3.58
2023-01-27T06:06:20.099Z,4.03
2023-01-27T06:11:15.973Z,4.45
2023-01-27T06:13:42.951Z,4.20
2023-01-27T06:16:12.351Z,3.75
2023-01-27T06:18:42.482Z,3.70
2023-01-27T06:21:11.509Z,4.20
2023-01-27T06:23:39.583Z,3.75
2023-01-27T06:26:15.720Z,3.85
2023-01-27T06:28:43.116Z,3.70
2023-01-27T06:31:12.589Z,3.60
2023-01-27T06:36:13.038Z,4.00
2023-01-27T06:38:40.234Z,3.35
2023-01-27T06:41:07.646Z,3.50
2023-01-27T06:43:34.931Z,3.75
2023-01-27T06:46:05.160Z,3.08
2023-01-27T06:48:32.768Z,3.30
2023-01-27T06:50:59.747Z,3.40
2023-01-27T06:53:26.699Z,3.58
2023-01-27T06:56:00.956Z,3.17
2023-01-27T06:58:29.262Z,3.33
2023-01-27T07:00:56.963Z,3.40
2023-01-27T07:03:24.491Z,3.30
2023-01-27T07:05:52.532Z,3.17
2023-01-27T07:08:19.464Z,3.47
2023-01-27T07:10:46.295Z,2.90
2023-01-27T07:13:14.829Z,3.13
2023-01-27T07:15:42.132Z,3.10
2023-01-27T07:18:10.843Z,2.88
2023-01-27T07:20:37.983Z,3.07
2023-01-27T07:23:05.557Z,3.00
2023-01-27T07:25:35.063Z,2.55
2023-01-27T07:30:30.369Z,2.75
2023-01-27T07:33:04.660Z,2.72
2023-01-27T07:35:31.461Z,2.25
2023-01-27T07:37:58.332Z,2.75
2023-01-27T07:40:25.279Z,2.63
2023-01-27T07:42:52.152Z,3.00
2023-01-27T07:45:19.856Z,2.30
2023-01-27T07:47:46.596Z,2.83
2023-01-27T07:50:14.259Z,2.38
2023-01-27T07:52:41.173Z,2.55
2023-01-27T07:55:08.367Z,2.47
2023-01-27T07:57:35.176Z,2.60
2023-01-27T08:00:02.420Z,2.72
2023-01-27T08:02:39.219Z,2.33
2023-01-27T08:05:06.431Z,2.83
2023-01-27T08:07:33.177Z,2.38
2023-01-27T08:10:00.225Z,2.45
2023-01-27T08:12:27.098Z,2.47
2023-01-27T08:14:53.845Z,2.33
2023-01-27T08:17:20.646Z,2.53
2023-01-27T08:19:48.533Z,2.60
2023-01-27T08:22:19.834Z,2.38
2023-01-27T08:24:47.045Z,2.25
2023-01-27T08:27:13.878Z,2.50
2023-01-27T08:29:40.727Z,2.15
2023-01-27T08:32:07.797Z,2.10
2023-01-27T08:34:34.966Z,2.72
2023-01-27T08:37:01.992Z,2.47
2023-01-27T08:39:29.214Z,2.45
2023-01-27T08:41:56.096Z,2.67
2023-01-27T08:44:24.268Z,2.17
2023-01-27T08:46:51.275Z,2.40
2023-01-27T08:49:18.271Z,2.22
2023-01-27T08:51:45.164Z,2.45
2023-01-27T08:54:12.174Z,1.95
2023-01-27T08:56:39.108Z,2.25
2023-01-27T08:59:06.089Z,2.17
2023-01-27T09:01:33.125Z,2.38
2023-01-27T09:04:00.096Z,1.92
2023-01-27T09:06:28.880Z,2.13
2023-01-27T09:09:15.912Z,2.10
2023-01-27T09:11:45.402Z,2.20
2023-01-27T09:14:12.374Z,2.20
2023-01-27T09:16:39.438Z,2.30
2023-01-27T09:19:06.401Z,2.10
2023-01-27T09:21:33.301Z,1.90
2023-01-27T09:24:00.148Z,2.08
2023-01-27T09:26:27.037Z,2.13
2023-01-27T09:28:53.785Z,2.03
2023-01-27T09:31:20.913Z,2.20
2023-01-27T09:33:50.277Z,1.90
2023-01-27T09:38:52.435Z,2.27
2023-01-27T09:41:40.251Z,1.85
2023-01-27T09:44:23.495Z,2.03
2023-01-27T09:47:11.817Z,1.88
2023-01-27T09:49:59.661Z,1.98
2023-01-27T09:53:04.145Z,1.80
2023-01-27T09:55:52.619Z,1.80
2023-01-27T09:58:52.959Z,2.00
2023-01-27T10:01:32.565Z,1.75
2023-01-27T10:04:08.376Z,2.10
2023-01-27T10:06:59.545Z,1.83
2023-01-27T10:09:39.524Z,2.00
2023-01-27T10:12:58.286Z,2.22
2023-01-27T10:15:43.875Z,2.20
2023-01-27T10:18:34.965Z,1.70
2023-01-27T10:21:10.691Z,1.77
2023-01-27T10:24:14.762Z,1.90
2023-01-27T10:26:49.745Z,1.83
2023-01-27T10:29:26.708Z,1.92
2023-01-27T10:32:01.649Z,2.20
2023-01-27T10:34:31.395Z,2.00
2023-01-27T10:37:32.478Z,2.00
2023-01-27T10:40:08.815Z,1.77
2023-01-27T10:42:38.626Z,2.05
2023-01-27T10:45:08.402Z,1.80
2023-01-27T10:47:51.246Z,1.85
2023-01-27T10:50:43.269Z,1.90
2023-01-27T10:53:28.781Z,1.80
2023-01-27T10:55:55.507Z,1.95
2023-01-27T10:58:34.649Z,1.80
2023-01-27T11:01:20.469Z,2.05
2023-01-27T11:04:16.672Z,1.80
2023-01-27T11:06:46.043Z,1.60
2023-01-27T11:10:01.021Z,2.05
2023-01-27T11:12:35.201Z,1.90
2023-01-27T11:15:14.558Z,1.70
2023-01-27T11:20:24.915Z,1.40
2023-01-27T11:23:10.017Z,1.70
2023-01-27T11:26:14.665Z,1.80
2023-01-27T11:28:54.860Z,1.80
2023-01-27T11:31:40.395Z,1.35
2023-01-27T11:34:42.338Z,1.80
2023-01-27T11:37:30.653Z,1.83
2023-01-27T11:39:58.099Z,1.80
2023-01-27T11:42:31.773Z,1.92
2023-01-27T11:44:59.786Z,1.70
2023-01-27T11:47:34.797Z,1.98
2023-01-27T11:50:05.459Z,1.83
2023-01-27T11:52:33.071Z,1.75
2023-01-27T11:55:02.926Z,1.55
2023-01-27T11:57:29.719Z,1.90
2023-01-27T12:00:27.544Z,1.63
2023-01-27T12:03:23.421Z,1.70
2023-01-27T12:06:00.052Z,1.48
2023-01-27T12:08:49.634Z,1.50
2023-01-27T12:11:28.133Z,1.50
2023-01-27T12:14:04.047Z,1.40
2023-01-27T12:16:52.063Z,1.50
2023-01-27T12:19:40.218Z,1.65
2023-01-27T12:22:15.179Z,1.73
2023-01-27T12:24:49.829Z,1.55
2023-01-27T12:27:26.407Z,1.65
2023-01-27T12:30:00.284Z,1.30
2023-01-27T12:32:40.725Z,1.45
2023-01-27T12:35:18.473Z,1.42
2023-01-27T12:37:46.132Z,1.42
2023-01-27T12:40:25.164Z,1.60
2023-01-27T12:43:16.452Z,1.45
2023-01-27T12:45:44.060Z,1.40
2023-01-27T12:48:13.472Z,1.60
2023-01-27T12:53:15.017Z,1.67
2023-01-27T12:56:05.032Z,2.00
2023-01-27T12:58:36.029Z,1.60
2023-01-27T13:01:07.806Z,1.50
2023-01-27T13:03:40.863Z,1.63
2023-01-27T13:06:08.515Z,1.40
2023-01-27T13:08:39.516Z,1.55
2023-01-27T13:11:07.074Z,1.65
2023-01-27T13:13:34.830Z,1.40
2023-01-27T13:16:20.466Z,1.42
2023-01-27T13:18:54.983Z,1.60
2023-01-27T13:21:27.195Z,1.60
2023-01-27T13:23:55.476Z,1.67
2023-01-27T13:26:29.566Z,1.38
2023-01-27T13:29:02.034Z,1.52
2023-01-27T13:31:47.331Z,2.20
2023-01-27T13:34:26.832Z,1.60
2023-01-27T13:39:40.553Z,1.40
2023-01-27T13:42:42.588Z,1.42
2023-01-27T13:45:47.840Z,1.80
2023-01-27T13:48:37.850Z,1.70
2023-01-27T13:51:15.330Z,1.70
2023-01-27T13:53:43.601Z,1.67
2023-01-27T13:56:19.696Z,1.58
2023-01-27T13:58:58.462Z,1.70
2023-01-27T14:02:00.785Z,1.48
2023-01-27T14:04:54.237Z,1.70
2023-01-27T14:07:28.708Z,1.75
2023-01-27T14:10:28.631Z,1.63
2023-01-27T14:15:45.912Z,1.50
2023-01-27T14:18:21.933Z,1.80
2023-01-27T14:21:25.012Z,1.70
2023-01-27T14:24:05.728Z,1.70
2023-01-27T14:26:44.457Z,1.70
2023-01-27T14:29:21.455Z,1.63
2023-01-27T14:32:12.672Z,1.67
2023-01-27T14:34:54.617Z,1.55
2023-01-27T14:37:39.894Z,2.08
2023-01-27T14:40:31.405Z,1.80
2023-01-27T14:43:13.432Z,1.63
2023-01-27T14:45:56.806Z,1.98
2023-01-27T14:48:38.906Z,2.35
2023-01-27T14:51:12.926Z,2.72
2023-01-27T14:53:46.564Z,3.00
2023-01-27T14:56:32.140Z,2.42
2023-01-27T14:59:25.434Z,2.50
2023-01-27T15:01:56.739Z,2.65
2023-01-27T15:04:37.048Z,2.53
2023-01-27T15:07:23.630Z,2.67
2023-01-27T15:10:17.574Z,2.60
2023-01-27T15:13:03.208Z,2.78
2023-01-27T15:15:32.933Z,2.85
2023-01-27T15:18:32.008Z,2.63
2023-01-27T15:21:02.582Z,2.40
2023-01-27T15:23:53.373Z,3.30
2023-01-27T15:26:25.101Z,2.80
2023-01-27T15:28:52.408Z,2.83
2023-01-27T15:31:19.553Z,2.65
2023-01-27T15:33:50.123Z,3.03
2023-01-27T15:36:31.952Z,2.90
2023-01-27T15:39:10.923Z,2.95
2023-01-27T15:41:50.944Z,3.08
2023-01-27T15:44:19.029Z,2.90
2023-01-27T15:46:49.334Z,3.03
2023-01-27T15:49:21.637Z,2.97
2023-01-27T15:51:51.787Z,2.75
2023-01-27T15:54:24.821Z,2.45
2023-01-27T15:56:54.040Z,2.80
2023-01-27T15:59:24.799Z,2.80
2023-01-27T16:02:13.880Z,2.95
2023-01-27T16:04:41.062Z,3.40
2023-01-27T16:07:21.212Z,2.72
2023-01-27T16:09:51.563Z,2.90
2023-01-27T16:12:26.948Z,3.03
2023-01-27T16:15:15.813Z,2.90
2023-01-27T16:18:18.744Z,2.70
2023-01-27T16:21:02.719Z,2.40
2023-01-27T16:23:54.278Z,3.50
2023-01-27T16:26:33.008Z,2.92
2023-01-27T16:29:13.474Z,2.58
2023-01-27T16:31:42.068Z,2.38
2023-01-27T16:34:21.770Z,2.53
2023-01-27T16:37:14.795Z,2.45
2023-01-27T16:39:55.508Z,2.50
2023-01-27T16:42:29.709Z,2.25
2023-01-27T16:45:00.650Z,2.58
2023-01-27T16:47:43.513Z,2.50
2023-01-27T16:50:45.845Z,2.40
2023-01-27T16:53:19.957Z,2.67
2023-01-27T16:56:07.664Z,2.38
2023-01-27T16:58:46.083Z,2.38
2023-01-27T17:01:28.538Z,2.35
2023-01-27T17:04:04.898Z,2.42
2023-01-27T17:06:38.303Z,2.25
2023-01-27T17:09:20.755Z,2.60
2023-01-27T17:11:47.790Z,2.30
2023-01-27T17:14:30.015Z,3.05
2023-01-27T17:17:06.307Z,2.00
2023-01-27T17:19:37.167Z,2.42
2023-01-27T17:22:10.201Z,2.22
2023-01-27T17:24:41.853Z,2.38
2023-01-27T17:27:26.437Z,2.40
2023-01-27T17:30:00.846Z,1.92
2023-01-27T17:32:34.694Z,2.40
2023-01-27T17:35:06.262Z,2.33
2023-01-27T17:37:33.587Z,2.10
2023-01-27T17:40:03.678Z,2.38
2023-01-27T17:42:33.245Z,1.75
2023-01-27T17:45:24.055Z,2.25
2023-01-27T17:47:51.086Z,1.95
2023-01-27T17:50:20.292Z,2.10
2023-01-27T17:52:52.606Z,2.00
2023-01-27T17:55:25.600Z,1.92
2023-01-27T17:58:04.373Z,1.80
2023-01-27T18:00:38.572Z,1.80
2023-01-27T18:03:10.930Z,2.08
2023-01-27T18:05:38.311Z,1.88
2023-01-27T18:08:06.635Z,2.10
2023-01-27T18:10:33.438Z,1.70
2023-01-27T18:13:13.831Z,1.85
2023-01-27T18:15:47.869Z,1.65
2023-01-27T18:18:26.980Z,2.03
2023-01-27T18:20:59.264Z,1.95
2023-01-27T18:23:28.744Z,2.10
2023-01-27T18:28:37.515Z,1.90
2023-01-27T18:31:12.403Z,1.77
2023-01-27T18:33:39.223Z,2.08
2023-01-27T18:36:06.259Z,1.73
2023-01-27T18:38:35.944Z,1.90
2023-01-27T18:41:22.961Z,2.00
2023-01-27T18:43:49.825Z,1.70
2023-01-27T18:46:16.519Z,1.80
2023-01-27T18:48:45.850Z,1.83
2023-01-27T18:51:15.453Z,1.60
2023-01-27T18:53:43.226Z,2.00
2023-01-27T18:56:10.169Z,1.80
2023-01-27T18:58:38.156Z,1.98
2023-01-27T19:01:12.955Z,1.80
2023-01-27T19:03:40.152Z,1.90
2023-01-27T19:06:16.696Z,1.90
2023-01-27T19:08:44.138Z,1.70
2023-01-27T19:11:16.037Z,1.90
2023-01-27T19:13:44.293Z,2.10
2023-01-27T19:16:15.119Z,1.90
2023-01-27T19:18:43.127Z,1.90
2023-01-27T19:21:13.307Z,1.70
2023-01-27T19:23:44.452Z,1.80
2023-01-27T19:26:17.600Z,1.85
2023-01-27T19:28:46.756Z,2.00
2023-01-27T19:31:13.979Z,2.03
2023-01-27T19:33:44.018Z,1.90
2023-01-27T19:36:16.905Z,2.00
2023-01-27T19:38:43.956Z,1.80
2023-01-27T19:41:11.002Z,2.05
2023-01-27T19:43:38.242Z,2.20
2023-01-27T19:46:18.213Z,1.98
2023-01-27T19:48:45.204Z,1.90
2023-01-27T19:51:12.053Z,2.10
2023-01-27T19:53:39.047Z,2.13
2023-01-27T19:56:16.033Z,2.38
2023-01-27T19:58:46.020Z,1.90
2023-01-27T20:01:13.557Z,2.25
2023-01-27T20:03:40.406Z,2.03
2023-01-27T20:06:18.858Z,2.13
2023-01-27T20:08:46.152Z,3.05
2023-01-27T20:11:32.889Z,3.25
2023-01-27T20:14:00.932Z,4.05
2023-01-27T20:16:28.181Z,4.85
2023-01-27T20:18:55.274Z,4.90
2023-01-27T20:21:22.339Z,5.22
2023-01-27T20:23:49.245Z,5.32
2023-01-27T20:26:17.093Z,5.82
2023-01-27T20:28:44.822Z,5.38
2023-01-27T20:31:12.823Z,6.30
2023-01-27T20:33:39.569Z,5.63
2023-01-27T20:36:08.662Z,6.40
2023-01-27T20:38:35.652Z,6.47
2023-01-27T20:41:15.355Z,6.35
2023-01-27T20:43:42.138Z,6.00
2023-01-27T20:46:12.010Z,6.25
2023-01-27T20:48:38.847Z,6.30
2023-01-27T20:51:08.947Z,6.88
2023-01-27T20:53:41.895Z,6.47
2023-01-27T20:56:09.262Z,7.00
2023-01-27T20:58:36.150Z,6.25
2023-01-27T21:01:08.307Z,6.03
2023-01-27T21:03:36.520Z,6.38
2023-01-27T21:06:04.601Z,6.07
2023-01-27T21:08:33.068Z,5.90
2023-01-27T21:11:05.289Z,5.87
2023-01-27T21:13:55.061Z,6.43
2023-01-27T21:16:21.914Z,6.20
2023-01-27T21:18:49.065Z,6.15
2023-01-27T21:21:28.379Z,6.20
2023-01-27T21:23:56.035Z,6.15
2023-01-27T21:26:23.747Z,6.22
2023-01-27T21:28:50.461Z,5.80
2023-01-27T21:31:19.819Z,6.45
2023-01-27T21:36:13.856Z,5.90
2023-01-27T21:38:40.680Z,6.00
2023-01-27T21:41:37.097Z,5.75
2023-01-27T21:44:23.223Z,5.40
2023-01-27T21:46:50.000Z,5.72
2023-01-27T21:49:16.614Z,6.00
2023-01-27T21:51:43.458Z,5.78
2023-01-27T21:54:10.502Z,5.53
2023-01-27T21:56:37.303Z,5.70
2023-01-27T21:59:04.756Z,5.38
2023-01-27T22:01:31.831Z,5.10
2023-01-27T22:03:58.841Z,5.40
2023-01-27T22:06:27.817Z,5.43
2023-01-27T22:08:54.664Z,5.22
2023-01-27T22:11:21.358Z,5.80
2023-01-27T22:13:48.033Z,5.30
2023-01-27T22:16:16.117Z,5.68
2023-01-27T22:18:45.769Z,5.32
2023-01-27T22:21:12.662Z,4.95
2023-01-27T22:23:39.447Z,4.80
2023-01-27T22:26:08.076Z,5.28
2023-01-27T22:28:37.222Z,5.27
2023-01-27T22:31:04.201Z,5.43
2023-01-27T22:33:32.428Z,5.32
2023-01-27T22:36:18.772Z,4.85
2023-01-27T22:38:45.574Z,5.30
2023-01-27T22:41:14.012Z,4.93
2023-01-27T22:43:40.637Z,4.90
2023-01-27T22:46:07.353Z,5.18
2023-01-27T22:48:33.983Z,4.68
2023-01-27T22:51:04.737Z,4.90
2023-01-27T22:53:33.870Z,4.60
2023-01-27T22:56:02.262Z,4.72
2023-01-27T22:58:29.591Z,5.00
2023-01-27T23:00:57.280Z,4.90
2023-01-27T23:03:24.715Z,4.55
2023-01-27T23:05:51.429Z,4.80
2023-01-27T23:08:20.889Z,5.18
2023-01-27T23:13:15.015Z,4.82
2023-01-27T23:15:41.583Z,4.40
2023-01-27T23:18:11.344Z,4.32
2023-01-27T23:20:42.558Z,4.15
2023-01-27T23:23:10.111Z,4.28
2023-01-27T23:25:44.535Z,4.10
2023-01-27T23:28:16.441Z,4.75
2023-01-27T23:30:47.389Z,4.15
2023-01-27T23:33:18.623Z,4.20
2023-01-27T23:35:46.176Z,4.85
2023-01-27T23:38:33.245Z,4.20
2023-01-27T23:41:08.795Z,4.45
2023-01-27T23:43:35.697Z,4.32
2023-01-27T23:46:02.450Z,4.28
2023-01-27T23:48:29.417Z,4.00
2023-01-27T23:50:56.034Z,4.00
2023-01-27T23:53:22.843Z,3.75
2023-01-27T23:55:59.841Z,4.05
2023-01-27T23:58:27.721Z,4.45
